createdAt,value
2018-12-27T00:00:13.041Z,23.53
2018-12-27T00:02:41.661Z,21.70
2018-12-27T00:05:10.207Z,26.37
2018-12-27T00:07:38.794Z,26.80
2018-12-27T00:10:07.559Z,23.47
2018-12-27T00:12:36.142Z,24.70
2018-12-27T00:15:05.942Z,22.93
2018-12-27T00:17:34.651Z,23.10
2018-12-27T00:20:03.288Z,23.90
2018-12-27T00:22:32.000Z,25.30
2018-12-27T00:25:00.602Z,21.40
2018-12-27T00:27:29.285Z,24.17
2018-12-27T00:29:59.727Z,20.53
2018-12-27T00:32:28.436Z,22.40
2018-12-27T00:34:57.234Z,23.37
2018-12-27T00:37:25.963Z,22.83
2018-12-27T00:39:54.754Z,18.73
2018-12-27T00:42:23.464Z,21.83
2018-12-27T00:44:52.289Z,22.13
2018-12-27T00:47:21.018Z,20.57
2018-12-27T00:49:49.781Z,19.93
2018-12-27T00:52:18.673Z,19.23
2018-12-27T00:54:47.437Z,20.50
2018-12-27T00:57:16.934Z,21.07
2018-12-27T00:59:45.859Z,17.70
2018-12-27T01:02:14.649Z,20.27
2018-12-27T01:04:43.394Z,21.47
2018-12-27T01:07:12.177Z,22.37
2018-12-27T01:09:40.879Z,19.30
2018-12-27T01:12:09.653Z,19.37
2018-12-27T01:14:38.415Z,20.13
2018-12-27T01:17:07.412Z,22.70
2018-12-27T01:19:36.178Z,22.30
2018-12-27T01:22:04.899Z,17.73
2018-12-27T01:24:33.628Z,18.87
2018-12-27T01:27:02.444Z,23.07
2018-12-27T01:29:31.199Z,19.83
2018-12-27T01:32:00.111Z,18.17
2018-12-27T01:34:28.987Z,22.70
2018-12-27T01:36:57.958Z,22.03
2018-12-27T01:39:26.731Z,22.33
2018-12-27T01:41:55.459Z,19.90
2018-12-27T01:44:24.226Z,23.80
2018-12-27T01:46:52.934Z,20.40
2018-12-27T01:49:21.683Z,23.57
2018-12-27T01:51:50.475Z,20.83
2018-12-27T01:54:19.242Z,23.30
2018-12-27T01:56:47.966Z,18.07
2018-12-27T01:59:16.690Z,23.07
2018-12-27T02:01:45.443Z,16.77
2018-12-27T02:04:14.265Z,20.97
2018-12-27T02:06:43.175Z,17.73
2018-12-27T02:09:11.999Z,20.33
2018-12-27T02:11:40.754Z,19.83
2018-12-27T02:14:09.471Z,21.43
2018-12-27T02:16:38.210Z,22.03
2018-12-27T02:19:07.193Z,22.63
2018-12-27T02:21:35.992Z,19.87
2018-12-27T02:24:04.731Z,21.17
2018-12-27T02:26:33.451Z,20.03
2018-12-27T02:29:02.202Z,19.73
2018-12-27T02:31:30.916Z,21.20
2018-12-27T02:33:59.731Z,19.67
2018-12-27T02:36:28.428Z,24.07
2018-12-27T02:38:57.275Z,19.53
2018-12-27T02:41:26.023Z,21.80
2018-12-27T02:43:54.835Z,19.13
2018-12-27T02:46:23.519Z,19.23
2018-12-27T02:48:52.234Z,20.27
2018-12-27T02:51:20.994Z,22.17
2018-12-27T02:53:49.706Z,19.87
2018-12-27T02:56:18.423Z,20.23
2018-12-27T02:58:47.287Z,20.20
2018-12-27T03:01:16.001Z,18.13
2018-12-27T03:03:44.738Z,19.93
2018-12-27T03:06:13.609Z,21.07
2018-12-27T03:08:42.354Z,21.00
2018-12-27T03:11:11.080Z,20.57
2018-12-27T03:13:39.834Z,19.40
2018-12-27T03:16:27.885Z,20.47
2018-12-27T03:18:56.634Z,23.47
2018-12-27T03:21:25.383Z,21.23
2018-12-27T03:23:54.119Z,23.10
2018-12-27T03:26:22.893Z,18.00
2018-12-27T03:28:51.649Z,19.87
2018-12-27T03:31:20.421Z,18.77
2018-12-27T03:33:52.775Z,22.70
2018-12-27T03:36:19.578Z,18.37
2018-12-27T03:38:48.367Z,18.33
2018-12-27T03:41:17.193Z,18.97
2018-12-27T03:43:45.983Z,21.50
2018-12-27T03:46:14.712Z,21.60
2018-12-27T03:48:43.477Z,18.03
2018-12-27T03:51:12.247Z,21.27
2018-12-27T03:53:41.019Z,22.10
2018-12-27T03:56:09.770Z,19.33
2018-12-27T03:58:38.506Z,20.00
2018-12-27T04:01:07.266Z,18.93
2018-12-27T04:03:36.033Z,21.03
2018-12-27T04:06:04.873Z,20.50
2018-12-27T04:08:33.762Z,20.43
2018-12-27T04:11:02.472Z,19.90
2018-12-27T04:13:31.208Z,19.67
2018-12-27T04:15:59.801Z,18.77
2018-12-27T04:18:28.459Z,22.27
2018-12-27T04:20:57.023Z,21.13
2018-12-27T04:23:26.520Z,17.97
2018-12-27T04:25:55.545Z,20.30
2018-12-27T04:28:24.105Z,19.30
2018-12-27T04:30:53.124Z,23.33
2018-12-27T04:33:22.623Z,20.77
2018-12-27T04:35:53.158Z,19.47
2018-12-27T04:38:21.848Z,21.47
2018-12-27T04:40:50.405Z,20.40
2018-12-27T04:43:19.014Z,18.53
2018-12-27T04:45:47.603Z,20.40
2018-12-27T04:48:16.222Z,19.33
2018-12-27T04:50:44.845Z,19.77
2018-12-27T04:53:13.429Z,19.63
2018-12-27T04:55:42.143Z,16.80
2018-12-27T04:58:10.758Z,18.53
2018-12-27T05:00:39.343Z,19.40
2018-12-27T05:03:07.919Z,20.33
2018-12-27T05:05:36.529Z,17.77
2018-12-27T05:08:05.549Z,18.67
2018-12-27T05:10:34.240Z,19.33
2018-12-27T05:13:02.855Z,16.60
2018-12-27T05:15:31.474Z,20.03
2018-12-27T05:18:00.223Z,22.47
2018-12-27T05:20:28.803Z,20.80
2018-12-27T05:22:57.511Z,20.33
2018-12-27T05:25:26.171Z,21.33
2018-12-27T05:27:54.798Z,19.77
2018-12-27T05:30:23.403Z,21.90
2018-12-27T05:32:52.106Z,20.27
2018-12-27T05:35:20.771Z,21.10
2018-12-27T05:37:49.462Z,19.60
2018-12-27T05:40:18.082Z,18.47
2018-12-27T05:42:46.655Z,19.40
2018-12-27T05:45:15.253Z,20.80
2018-12-27T05:47:43.814Z,19.60
2018-12-27T05:50:12.606Z,17.07
2018-12-27T05:52:41.157Z,18.10
2018-12-27T05:55:09.834Z,17.47
2018-12-27T05:57:38.626Z,17.60
2018-12-27T06:00:07.357Z,19.23
2018-12-27T06:02:35.924Z,20.43
2018-12-27T06:05:04.656Z,17.90
2018-12-27T06:07:33.250Z,21.17
2018-12-27T06:10:01.835Z,24.67
2018-12-27T06:12:30.439Z,21.20
2018-12-27T06:14:59.061Z,18.83
2018-12-27T06:17:27.642Z,17.47
2018-12-27T06:19:56.265Z,17.70
2018-12-27T06:22:24.875Z,20.27
2018-12-27T06:24:53.600Z,15.07
2018-12-27T06:27:22.104Z,15.53
2018-12-27T06:29:50.713Z,15.87
2018-12-27T06:32:19.279Z,17.80
2018-12-27T06:34:48.018Z,16.87
2018-12-27T06:37:16.714Z,18.33
2018-12-27T06:39:45.331Z,19.57
2018-12-27T06:42:13.983Z,18.07
2018-12-27T06:44:42.622Z,15.27
2018-12-27T06:47:11.218Z,15.43
2018-12-27T06:49:39.797Z,17.00
2018-12-27T06:52:08.409Z,15.27
2018-12-27T06:54:37.018Z,18.10
2018-12-27T06:57:05.647Z,17.40
2018-12-27T06:59:34.223Z,14.10
2018-12-27T07:02:02.887Z,18.30
2018-12-27T07:04:32.615Z,16.77
2018-12-27T07:07:01.134Z,21.20
2018-12-27T07:09:29.754Z,19.47
2018-12-27T07:11:58.366Z,17.10
2018-12-27T07:14:26.991Z,14.87
2018-12-27T07:16:55.658Z,16.83
2018-12-27T07:19:24.330Z,16.43
2018-12-27T07:21:52.910Z,16.03
2018-12-27T07:24:21.446Z,15.27
2018-12-27T07:26:50.026Z,14.20
2018-12-27T07:29:18.610Z,15.33
2018-12-27T07:31:47.184Z,15.47
2018-12-27T07:34:15.927Z,14.60
2018-12-27T07:36:44.558Z,14.33
2018-12-27T07:39:13.120Z,14.93
2018-12-27T07:41:42.709Z,14.50
2018-12-27T07:44:11.188Z,17.43
2018-12-27T07:46:39.776Z,18.93
2018-12-27T07:49:08.334Z,17.83
2018-12-27T07:51:36.940Z,16.53
2018-12-27T07:54:05.528Z,13.50
2018-12-27T07:56:34.133Z,16.00
2018-12-27T07:59:02.701Z,15.97
2018-12-27T08:01:31.355Z,14.57
2018-12-27T08:04:00.892Z,16.03
2018-12-27T08:06:29.589Z,15.17
2018-12-27T08:08:58.315Z,17.83
2018-12-27T08:11:27.470Z,18.47
2018-12-27T08:13:56.082Z,13.97
2018-12-27T08:16:24.673Z,15.67
2018-12-27T08:19:12.594Z,14.40
2018-12-27T08:21:41.349Z,29.30
2018-12-27T08:24:09.917Z,22.53
2018-12-27T08:26:38.513Z,26.73
2018-12-27T08:29:09.271Z,16.03
2018-12-27T08:31:38.038Z,17.17
2018-12-27T08:34:06.531Z,15.17
2018-12-27T08:36:35.145Z,16.67
2018-12-27T08:39:05.486Z,14.57
2018-12-27T08:41:34.099Z,13.83
2018-12-27T08:44:02.714Z,15.73
2018-12-27T08:46:31.322Z,14.73
2018-12-27T08:49:00.046Z,13.90
2018-12-27T08:51:28.663Z,14.63
2018-12-27T08:53:57.282Z,17.33
2018-12-27T08:56:25.907Z,13.43
2018-12-27T08:58:55.582Z,16.03
2018-12-27T09:01:24.226Z,14.40
2018-12-27T09:03:52.792Z,13.10
2018-12-27T09:06:21.501Z,18.03
2018-12-27T09:08:50.125Z,15.97
2018-12-27T09:11:18.870Z,15.20
2018-12-27T09:13:47.578Z,15.83
2018-12-27T09:16:16.206Z,13.70
2018-12-27T09:18:45.114Z,13.77
2018-12-27T09:21:13.659Z,15.27
2018-12-27T09:23:42.210Z,14.63
2018-12-27T09:26:10.763Z,14.03
2018-12-27T09:28:39.381Z,18.77
2018-12-27T09:31:08.105Z,17.50
2018-12-27T09:33:39.918Z,17.00
2018-12-27T09:36:08.508Z,15.87
2018-12-27T09:38:37.334Z,15.07
2018-12-27T09:41:06.230Z,14.33
2018-12-27T09:43:34.799Z,14.10
2018-12-27T09:46:03.393Z,18.47
2018-12-27T09:48:31.962Z,15.77
2018-12-27T09:51:00.527Z,16.50
2018-12-27T09:53:29.333Z,17.23
2018-12-27T09:55:57.959Z,15.57
2018-12-27T09:58:26.886Z,19.20
2018-12-27T10:00:56.150Z,19.27
2018-12-27T10:03:24.733Z,17.40
2018-12-27T10:06:12.688Z,13.97
2018-12-27T10:08:41.327Z,15.60
2018-12-27T10:11:09.926Z,19.47
2018-12-27T10:13:38.722Z,20.07
2018-12-27T10:16:07.252Z,16.47
2018-12-27T10:18:36.758Z,17.77
2018-12-27T10:21:05.357Z,15.57
2018-12-27T10:23:33.935Z,16.33
2018-12-27T10:26:02.692Z,14.57
2018-12-27T10:28:31.307Z,15.60
2018-12-27T10:31:00.781Z,14.83
2018-12-27T10:33:29.454Z,14.57
2018-12-27T10:35:58.257Z,14.97
2018-12-27T10:38:26.964Z,14.63
2018-12-27T10:40:55.638Z,12.83
2018-12-27T10:43:24.289Z,13.53
2018-12-27T10:45:52.904Z,13.70
2018-12-27T10:48:21.883Z,13.13
2018-12-27T10:50:50.604Z,16.33
2018-12-27T10:53:19.425Z,15.80
2018-12-27T10:55:48.798Z,18.20
2018-12-27T10:58:17.325Z,16.30
2018-12-27T11:00:45.962Z,17.50
2018-12-27T11:03:14.871Z,17.93
2018-12-27T11:05:48.645Z,16.13
2018-12-27T11:08:14.048Z,25.57
2018-12-27T11:10:42.605Z,16.70
2018-12-27T11:13:11.198Z,17.93
2018-12-27T11:15:42.291Z,15.20
2018-12-27T11:18:10.950Z,14.60
2018-12-27T11:20:39.654Z,14.83
2018-12-27T11:23:08.393Z,17.00
2018-12-27T11:25:37.008Z,18.07
2018-12-27T11:28:05.707Z,22.13
2018-12-27T11:30:34.351Z,18.43
2018-12-27T11:33:03.110Z,33.60
2018-12-27T11:35:31.762Z,39.37
2018-12-27T11:38:19.706Z,37.60
2018-12-27T11:40:48.424Z,33.27
2018-12-27T11:43:16.990Z,36.97
2018-12-27T11:45:45.751Z,19.60
2018-12-27T11:48:14.457Z,18.53
2018-12-27T11:50:43.053Z,18.07
2018-12-27T11:53:11.810Z,21.83
2018-12-27T11:55:40.639Z,23.33
2018-12-27T11:58:09.307Z,19.00
2018-12-27T12:00:37.895Z,18.73
2018-12-27T12:03:06.480Z,18.80
2018-12-27T12:05:35.066Z,19.67
2018-12-27T12:08:03.727Z,20.27
2018-12-27T12:10:32.338Z,20.50
2018-12-27T12:13:01.181Z,20.40
2018-12-27T12:15:29.967Z,23.33
2018-12-27T12:17:58.599Z,20.47
2018-12-27T12:20:27.209Z,22.40
2018-12-27T12:22:55.770Z,19.90
2018-12-27T12:25:24.375Z,20.17
2018-12-27T12:27:52.952Z,20.73
2018-12-27T12:30:21.605Z,18.90
2018-12-27T12:32:50.182Z,18.37
2018-12-27T12:35:22.847Z,18.90
2018-12-27T12:37:52.709Z,19.53
2018-12-27T12:40:21.298Z,18.00
2018-12-27T12:42:49.983Z,16.67
2018-12-27T12:45:18.576Z,19.40
2018-12-27T12:47:47.136Z,18.43
2018-12-27T12:50:15.893Z,19.00
2018-12-27T12:52:44.599Z,18.13
2018-12-27T12:55:13.205Z,18.60
2018-12-27T12:57:41.841Z,16.40
2018-12-27T13:00:11.162Z,17.77
2018-12-27T13:02:39.730Z,21.77
2018-12-27T13:05:08.403Z,18.87
2018-12-27T13:07:37.021Z,19.97
2018-12-27T13:10:06.114Z,15.77
2018-12-27T13:12:34.647Z,14.83
2018-12-27T13:15:04.661Z,14.60
2018-12-27T13:17:33.226Z,13.60
2018-12-27T13:20:01.972Z,16.33
2018-12-27T13:22:30.606Z,20.40
2018-12-27T13:24:59.210Z,16.03
2018-12-27T13:27:27.828Z,14.57
2018-12-27T13:29:56.658Z,15.27
2018-12-27T13:32:25.328Z,15.77
2018-12-27T13:34:53.887Z,17.63
2018-12-27T13:37:22.578Z,17.37
2018-12-27T13:39:51.230Z,17.03
2018-12-27T13:42:19.819Z,15.77
2018-12-27T13:44:48.426Z,16.77
2018-12-27T13:47:18.623Z,18.03
2018-12-27T13:49:47.477Z,16.07
2018-12-27T13:52:15.994Z,15.73
2018-12-27T13:54:44.678Z,16.77
2018-12-27T13:57:13.294Z,15.77
2018-12-27T13:59:42.119Z,15.87
2018-12-27T14:02:10.683Z,17.07
2018-12-27T14:04:39.218Z,16.17
2018-12-27T14:07:27.122Z,16.27
2018-12-27T14:09:56.348Z,17.93
2018-12-27T14:12:24.859Z,17.27
2018-12-27T14:14:53.680Z,16.93
2018-12-27T14:17:22.316Z,15.97
2018-12-27T14:19:51.019Z,16.43
2018-12-27T14:22:19.606Z,19.13
2018-12-27T14:24:48.190Z,17.47
2018-12-27T14:27:16.791Z,18.83
2018-12-27T14:29:45.508Z,17.63
2018-12-27T14:32:16.815Z,23.97
2018-12-27T14:34:46.294Z,18.80
2018-12-27T14:37:14.886Z,18.27
2018-12-27T14:39:43.582Z,20.33
2018-12-27T14:42:12.737Z,17.10
2018-12-27T14:44:41.329Z,15.30
2018-12-27T14:47:10.202Z,19.57
2018-12-27T14:49:38.691Z,17.37
2018-12-27T14:52:07.823Z,19.47
2018-12-27T14:54:36.439Z,17.27
2018-12-27T14:57:05.006Z,18.10
2018-12-27T14:59:33.849Z,19.40
2018-12-27T15:02:02.389Z,17.93
2018-12-27T15:04:31.003Z,22.60
2018-12-27T15:06:59.996Z,19.10
2018-12-27T15:09:28.650Z,20.87
2018-12-27T15:11:57.503Z,19.43
2018-12-27T15:14:26.229Z,18.87
2018-12-27T15:16:54.947Z,19.60
2018-12-27T15:19:23.487Z,22.50
2018-12-27T15:21:52.242Z,18.87
2018-12-27T15:24:21.035Z,21.67
2018-12-27T15:26:49.651Z,25.73
2018-12-27T15:29:19.852Z,24.47
2018-12-27T15:31:48.626Z,24.50
2018-12-27T15:34:17.323Z,18.53
2018-12-27T15:36:46.083Z,22.90
2018-12-27T15:39:14.899Z,18.00
2018-12-27T15:41:43.578Z,19.93
2018-12-27T15:44:12.445Z,20.73
2018-12-27T15:46:41.195Z,15.97
2018-12-27T15:49:09.775Z,19.47
2018-12-27T15:51:39.644Z,18.83
2018-12-27T15:54:08.417Z,22.43
2018-12-27T15:56:37.133Z,19.70
2018-12-27T15:59:05.754Z,20.67
2018-12-27T16:01:34.447Z,18.80
2018-12-27T16:04:03.165Z,19.27
2018-12-27T16:06:32.824Z,18.17
2018-12-27T16:09:01.504Z,19.10
2018-12-27T16:11:30.014Z,18.10
2018-12-27T16:13:58.903Z,17.50
2018-12-27T16:16:27.760Z,16.67
2018-12-27T16:18:56.378Z,17.87
2018-12-27T16:21:24.961Z,15.03
2018-12-27T16:23:53.653Z,17.03
2018-12-27T16:26:22.367Z,19.53
2018-12-27T16:28:51.082Z,19.67
2018-12-27T16:31:20.118Z,21.37
2018-12-27T16:33:48.739Z,20.57
2018-12-27T16:36:17.289Z,22.90
2018-12-27T16:38:48.707Z,22.17
2018-12-27T16:41:18.561Z,24.83
2018-12-27T16:43:52.931Z,23.13
2018-12-27T16:46:21.643Z,20.60
2018-12-27T16:48:50.276Z,21.37
2018-12-27T16:51:19.098Z,22.17
2018-12-27T16:53:47.780Z,17.97
2018-12-27T16:56:16.601Z,20.07
2018-12-27T16:58:45.202Z,19.90
2018-12-27T17:01:13.982Z,18.67
2018-12-27T17:03:42.570Z,19.23
2018-12-27T17:06:11.152Z,20.07
2018-12-27T17:08:39.737Z,18.93
2018-12-27T17:11:08.378Z,21.47
2018-12-27T17:13:36.962Z,22.57
2018-12-27T17:16:05.816Z,21.33
2018-12-27T17:18:34.624Z,23.37
2018-12-27T17:21:03.206Z,23.07
2018-12-27T17:23:31.870Z,23.27
2018-12-27T17:26:00.850Z,24.10
2018-12-27T17:28:30.647Z,21.33
2018-12-27T17:30:59.496Z,25.47
2018-12-27T17:33:28.141Z,25.93
2018-12-27T17:35:56.816Z,28.63
2018-12-27T17:38:25.649Z,27.47
2018-12-27T17:40:54.201Z,28.53
2018-12-27T17:43:22.794Z,27.27
2018-12-27T17:45:51.381Z,29.07
2018-12-27T17:48:19.953Z,29.87
2018-12-27T17:50:48.498Z,25.63
2018-12-27T17:53:17.099Z,26.80
2018-12-27T17:55:46.669Z,28.37
2018-12-27T17:58:15.629Z,27.47
2018-12-27T18:01:04.035Z,23.87
2018-12-27T18:03:32.662Z,26.13
2018-12-27T18:06:01.274Z,23.47
2018-12-27T18:08:30.036Z,28.23
2018-12-27T18:10:58.617Z,28.80
2018-12-27T18:13:28.890Z,26.20
2018-12-27T18:15:57.680Z,26.30
2018-12-27T18:18:26.325Z,26.17
2018-12-27T18:20:55.168Z,27.47
2018-12-27T18:23:23.867Z,28.27
2018-12-27T18:25:52.652Z,27.53
2018-12-27T18:28:21.274Z,27.87
2018-12-27T18:30:49.950Z,25.50
2018-12-27T18:33:18.596Z,27.83
2018-12-27T18:35:47.175Z,34.63
2018-12-27T18:38:15.898Z,28.97
2018-12-27T18:40:44.517Z,30.70
2018-12-27T18:43:13.689Z,30.00
2018-12-27T18:45:42.233Z,28.80
2018-12-27T18:48:10.817Z,29.57
2018-12-27T18:50:39.432Z,29.37
2018-12-27T18:53:07.964Z,31.37
2018-12-27T18:55:36.649Z,35.97
2018-12-27T18:58:05.209Z,43.87
2018-12-27T19:00:34.152Z,34.30
2018-12-27T19:03:02.735Z,37.20
2018-12-27T19:05:31.322Z,30.23
2018-12-27T19:07:59.991Z,32.90
2018-12-27T19:10:28.654Z,33.50
2018-12-27T19:13:08.982Z,29.67
2018-12-27T19:15:40.659Z,29.33
2018-12-27T19:18:21.101Z,29.83
2018-12-27T19:20:53.134Z,29.70
2018-12-27T19:23:21.786Z,21.00
2018-12-27T19:25:50.405Z,23.70
2018-12-27T19:28:19.078Z,26.27
2018-12-27T19:30:47.627Z,21.50
2018-12-27T19:33:16.237Z,26.93
2018-12-27T19:35:44.878Z,30.10
2018-12-27T19:38:13.621Z,24.80
2018-12-27T19:40:42.358Z,25.43
2018-12-27T19:43:10.949Z,20.87
2018-12-27T19:45:39.590Z,21.20
2018-12-27T19:48:08.221Z,28.13
2018-12-27T19:50:37.206Z,19.40
2018-12-27T19:53:05.703Z,21.23
2018-12-27T19:55:34.370Z,18.63
2018-12-27T19:58:02.926Z,17.97
2018-12-27T20:00:31.642Z,20.77
2018-12-27T20:03:00.305Z,19.03
2018-12-27T20:05:29.250Z,21.57
2018-12-27T20:07:59.522Z,21.97
2018-12-27T20:10:30.132Z,28.57
2018-12-27T20:12:58.678Z,28.67
2018-12-27T20:15:27.322Z,20.97
2018-12-27T20:17:55.985Z,19.53
2018-12-27T20:20:24.649Z,23.77
2018-12-27T20:22:53.274Z,20.60
2018-12-27T20:25:21.881Z,21.70
2018-12-27T20:27:50.506Z,21.20
2018-12-27T20:30:19.176Z,23.63
2018-12-27T20:32:47.882Z,21.17
2018-12-27T20:35:16.585Z,22.33
2018-12-27T20:37:45.179Z,20.83
2018-12-27T20:40:13.756Z,24.83
2018-12-27T20:42:42.359Z,23.83
2018-12-27T20:45:11.006Z,23.60
2018-12-27T20:47:39.610Z,21.60
2018-12-27T20:50:08.243Z,25.37
2018-12-27T20:52:36.858Z,29.97
2018-12-27T20:55:05.852Z,33.80
2018-12-27T20:57:34.610Z,34.63
2018-12-27T21:00:03.177Z,40.67
2018-12-27T21:02:32.045Z,36.43
2018-12-27T21:05:00.677Z,36.60
2018-12-27T21:07:29.270Z,36.83
2018-12-27T21:09:57.999Z,36.10
2018-12-27T21:12:26.628Z,31.83
2018-12-27T21:14:55.318Z,34.83
2018-12-27T21:17:23.910Z,34.57
2018-12-27T21:20:05.211Z,39.50
2018-12-27T21:22:33.824Z,37.07
2018-12-27T21:25:02.410Z,33.90
2018-12-27T21:27:31.013Z,30.37
2018-12-27T21:29:59.934Z,32.27
2018-12-27T21:32:28.576Z,27.17
2018-12-27T21:34:57.360Z,25.70
2018-12-27T21:37:26.105Z,28.97
2018-12-27T21:39:54.939Z,32.13
2018-12-27T21:42:23.574Z,27.97
2018-12-27T21:44:52.142Z,30.57
2018-12-27T21:47:20.765Z,31.07
2018-12-27T21:49:49.481Z,31.40
2018-12-27T21:52:18.102Z,27.67
2018-12-27T21:54:46.687Z,29.10
2018-12-27T21:57:15.294Z,27.63
2018-12-27T21:59:43.922Z,31.83
2018-12-27T22:02:12.607Z,27.70
2018-12-27T22:04:41.169Z,29.87
2018-12-27T22:07:09.746Z,26.33
2018-12-27T22:09:38.294Z,24.27
2018-12-27T22:12:07.004Z,20.27
2018-12-27T22:14:35.566Z,28.00
2018-12-27T22:17:04.358Z,30.80
2018-12-27T22:19:33.046Z,34.73
2018-12-27T22:22:01.733Z,25.87
2018-12-27T22:24:30.451Z,36.90
2018-12-27T22:26:59.102Z,31.53
2018-12-27T22:29:27.784Z,22.70
2018-12-27T22:31:56.722Z,22.10
2018-12-27T22:34:25.309Z,19.47
2018-12-27T22:36:54.006Z,16.53
2018-12-27T22:39:22.546Z,22.23
2018-12-27T22:41:51.120Z,19.97
2018-12-27T22:44:19.983Z,17.67
2018-12-27T22:46:48.464Z,23.10
2018-12-27T22:49:17.051Z,19.07
2018-12-27T22:51:45.694Z,22.10
2018-12-27T22:54:14.246Z,18.13
2018-12-27T22:56:42.937Z,20.37
2018-12-27T22:59:11.810Z,23.47
2018-12-27T23:01:40.380Z,21.70
2018-12-27T23:04:10.088Z,22.37
2018-12-27T23:06:38.778Z,21.30
2018-12-27T23:09:07.389Z,24.17
2018-12-27T23:11:35.981Z,22.80
2018-12-27T23:14:04.694Z,23.47
2018-12-27T23:16:33.450Z,25.93
2018-12-27T23:19:02.007Z,22.47
2018-12-27T23:21:30.590Z,24.13
2018-12-27T23:23:59.562Z,23.57
2018-12-27T23:26:28.918Z,24.90
2018-12-27T23:28:57.508Z,23.23
2018-12-27T23:31:26.695Z,21.17
2018-12-27T23:33:55.730Z,25.90
2018-12-27T23:36:24.349Z,20.53
2018-12-27T23:38:53.231Z,20.83
2018-12-27T23:41:21.884Z,24.10
2018-12-27T23:43:50.502Z,20.30
2018-12-27T23:46:19.054Z,26.57
2018-12-27T23:48:47.639Z,23.43
2018-12-27T23:51:16.374Z,28.77
2018-12-27T23:53:44.939Z,30.83
2018-12-27T23:56:13.564Z,26.77
2018-12-27T23:58:42.183Z,25.37
